Time;durP1;ratioP1;P1;durP2;ratioP2;P2;SDS_P1;SDS_P2;PMS_P1;PMS_P2;Temp;Humidity;BMP_temperature;BMP_pressure;BME280_temperature;BME280_humidity;BME280_pressure;Samples;Min_cycle;Max_cycle;Signal;HPM_P1;HPM_P2
2022/04/16 00:00:20;;;;;;;;;;;13.40;69.00;;;;;;5078319;28;19908;-78
2022/04/16 00:02:46;;;;;;;;;;;13.40;69.10;;;;;;5077883;28;20446;-78
2022/04/16 00:05:12;;;;;;;;;;;13.40;71.50;;;;;;5077792;28;19947;-78
2022/04/16 00:07:38;;;;;;;;;;;13.40;69.50;;;;;;5076977;28;20011;-78
2022/04/16 00:10:04;;;;;;;;;;;13.40;71.50;;;;;;5077815;28;19952;-78
2022/04/16 00:12:30;;;;;;;;;;;13.40;71.20;;;;;;5077843;28;20007;-78
2022/04/16 00:14:56;;;;;;;;;;;13.30;70.00;;;;;;5069107;28;19947;-78
2022/04/16 00:17:21;;;;;;;;;;;13.30;70.70;;;;;;5070571;28;20430;-78
2022/04/16 00:19:47;;;;;;;;;;;13.30;70.20;;;;;;5077679;28;19908;-78
2022/04/16 00:22:13;;;;;;;;;;;13.30;72.00;;;;;;5077706;28;19909;-78
2022/04/16 00:24:40;;;;;;;;;;;13.20;71.80;;;;;;5077746;28;20382;-78
2022/04/16 00:27:07;;;;;;;;;;;13.20;72.80;;;;;;5077833;28;19999;-78
2022/04/16 00:29:34;;;;;;;;;;;13.20;71.40;;;;;;5077953;28;19932;-78
2022/04/16 00:32:00;;;;;;;;;;;13.10;70.80;;;;;;5077903;28;19909;-78
2022/04/16 00:34:25;;;;;;;;;;;13.10;71.50;;;;;;5077939;28;19915;-78
2022/04/16 00:36:51;;;;;;;;;;;13.10;74.60;;;;;;5077782;28;19915;-78
2022/04/16 00:39:17;;;;;;;;;;;13.00;72.00;;;;;;5077199;28;19913;-78
2022/04/16 00:41:43;;;;;;;;;;;13.00;70.20;;;;;;5077652;28;20035;-78
2022/04/16 00:44:09;;;;;;;;;;;13.00;70.10;;;;;;5077723;28;19913;-78
2022/04/16 00:46:35;;;;;;;;;;;12.90;69.50;;;;;;5075866;28;19927;-78
2022/04/16 00:49:03;;;;;;;;;;;12.90;71.60;;;;;;5077432;28;20302;-77
2022/04/16 00:51:30;;;;;;;;;;;12.90;70.60;;;;;;5077532;28;19905;-78
2022/04/16 00:53:56;;;;;;;;;;;12.90;71.00;;;;;;5077603;28;19916;-77
2022/04/16 00:56:21;;;;;;;;;;;12.80;70.20;;;;;;5076146;28;19908;-78
2022/04/16 00:58:47;;;;;;;;;;;12.80;70.00;;;;;;5080321;28;19912;-77
2022/04/16 01:01:13;;;;;;;;;;;12.80;69.80;;;;;;5092795;28;20362;-77
2022/04/16 01:03:42;;;;;;;;;;;12.80;69.70;;;;;;5077803;28;19913;-78
2022/04/16 01:06:14;;;;;;;;;;;12.70;69.90;;;;;;5077718;28;19915;-78
2022/04/16 01:08:46;;;;;;;;;;;12.70;69.90;;;;;;5077327;28;20381;-78
2022/04/16 01:11:12;;;;;;;;;;;12.80;75.10;;;;;;5077303;28;19908;-78
2022/04/16 01:13:38;;;;;;;;;;;12.80;74.00;;;;;;5064229;28;19920;-78
2022/04/16 01:16:05;;;;;;;;;;;12.70;75.40;;;;;;5075858;28;19909;-78
2022/04/16 01:18:31;;;;;;;;;;;12.70;74.30;;;;;;5075300;28;19915;-77
2022/04/16 01:20:57;;;;;;;;;;;12.80;75.40;;;;;;5077481;28;19915;-78
2022/04/16 01:23:22;;;;;;;;;;;12.70;73.90;;;;;;5077328;28;20375;-78
2022/04/16 01:25:48;;;;;;;;;;;12.70;72.70;;;;;;5077313;28;19980;-78
2022/04/16 01:28:13;;;;;;;;;;;12.70;75.60;;;;;;5077134;28;20385;-78
2022/04/16 01:30:39;;;;;;;;;;;12.60;72.70;;;;;;5077318;28;19916;-78
2022/04/16 01:33:05;;;;;;;;;;;12.60;71.50;;;;;;5077125;28;19908;-78
2022/04/16 01:35:31;;;;;;;;;;;12.60;71.30;;;;;;5077448;28;19916;-78
2022/04/16 01:37:57;;;;;;;;;;;12.50;71.00;;;;;;5077115;28;19908;-78
2022/04/16 01:40:25;;;;;;;;;;;12.50;71.90;;;;;;5075079;28;19935;-78
2022/04/16 01:42:56;;;;;;;;;;;12.50;75.60;;;;;;5077024;28;19908;-78
2022/04/16 01:45:22;;;;;;;;;;;12.50;72.60;;;;;;5077703;28;19909;-78
2022/04/16 01:47:50;;;;;;;;;;;12.50;71.20;;;;;;5073185;28;19928;-78
2022/04/16 01:50:16;;;;;;;;;;;12.50;70.70;;;;;;5077136;28;19912;-78
2022/04/16 01:52:42;;;;;;;;;;;12.50;70.80;;;;;;5076926;28;19934;-77
2022/04/16 01:55:09;;;;;;;;;;;12.40;70.70;;;;;;5078678;28;19962;-77
2022/04/16 01:57:34;;;;;;;;;;;12.40;73.10;;;;;;5080634;28;19916;-77
2022/04/16 02:00:00;;;;;;;;;;;12.40;74.10;;;;;;5080804;28;19909;-77
2022/04/16 02:02:26;;;;;;;;;;;12.40;72.50;;;;;;5080661;28;19908;-78
2022/04/16 02:04:51;;;;;;;;;;;12.40;71.50;;;;;;5080855;28;20419;-77
2022/04/16 02:07:17;;;;;;;;;;;12.30;71.20;;;;;;5080418;28;19934;-77
2022/04/16 02:09:42;;;;;;;;;;;12.30;71.10;;;;;;5080222;28;19912;-78
2022/04/16 02:12:08;;;;;;;;;;;12.30;70.80;;;;;;5079237;28;19963;-77
2022/04/16 02:14:34;;;;;;;;;;;12.30;70.80;;;;;;5065385;28;19908;-78
2022/04/16 02:17:00;;;;;;;;;;;12.20;71.10;;;;;;5080312;28;19909;-78
2022/04/16 02:19:26;;;;;;;;;;;12.20;70.90;;;;;;5080089;28;19947;-77
2022/04/16 02:21:52;;;;;;;;;;;12.20;74.30;;;;;;5080426;28;19916;-78
2022/04/16 02:24:18;;;;;;;;;;;12.20;73.90;;;;;;5079915;28;19908;-77
2022/04/16 02:26:44;;;;;;;;;;;12.20;72.30;;;;;;5080174;28;19912;-78
2022/04/16 02:29:10;;;;;;;;;;;12.10;72.10;;;;;;5079849;28;20298;-78
2022/04/16 02:31:39;;;;;;;;;;;12.10;72.20;;;;;;5080216;28;20002;-78
2022/04/16 02:34:08;;;;;;;;;;;12.10;72.20;;;;;;5079946;28;20264;-77
2022/04/16 02:36:34;;;;;;;;;;;12.10;73.30;;;;;;5080087;28;19976;-77
2022/04/16 02:39:00;;;;;;;;;;;12.10;72.40;;;;;;5077635;28;20397;-77
2022/04/16 02:41:26;;;;;;;;;;;12.10;72.00;;;;;;5079915;28;20321;-77
2022/04/16 02:43:57;;;;;;;;;;;12.00;71.40;;;;;;5079728;28;19912;-78
2022/04/16 02:49:08;;;;;;;;;;;12.00;71.60;;;;;;5075936;28;19989;-78
2022/04/16 02:51:34;;;;;;;;;;;12.00;73.90;;;;;;5079979;28;19909;-78
2022/04/16 02:54:00;;;;;;;;;;;12.00;73.30;;;;;;5079176;28;19914;-77
2022/04/16 02:56:25;;;;;;;;;;;12.00;73.90;;;;;;5079440;28;19909;-78
2022/04/16 02:58:51;;;;;;;;;;;11.90;75.50;;;;;;5078171;28;20374;-78
2022/04/16 03:01:17;;;;;;;;;;;11.90;73.70;;;;;;5079145;28;19915;-78
2022/04/16 03:03:43;;;;;;;;;;;11.90;73.30;;;;;;5079718;28;19936;-78
2022/04/16 03:06:09;;;;;;;;;;;11.90;72.70;;;;;;5079268;28;19966;-78
2022/04/16 03:08:35;;;;;;;;;;;11.80;71.60;;;;;;5078032;28;19920;-78
2022/04/16 03:11:01;;;;;;;;;;;11.80;71.80;;;;;;5079100;28;19909;-79
2022/04/16 03:13:26;;;;;;;;;;;11.70;73.50;;;;;;5074047;28;19908;-78
2022/04/16 03:18:36;;;;;;;;;;;11.80;75.60;;;;;;5067740;28;19954;-78
2022/04/16 03:21:04;;;;;;;;;;;11.70;74.90;;;;;;5078890;28;19908;-78
2022/04/16 03:23:29;;;;;;;;;;;11.70;75.30;;;;;;5077599;28;19920;-78
2022/04/16 03:25:58;;;;;;;;;;;11.70;74.40;;;;;;5078956;28;19909;-78
2022/04/16 03:28:24;;;;;;;;;;;11.70;75.60;;;;;;5078986;28;19920;-78
2022/04/16 03:30:49;;;;;;;;;;;11.70;76.90;;;;;;5077248;28;19908;-78
2022/04/16 03:33:15;;;;;;;;;;;11.70;77.70;;;;;;5078901;28;20290;-78
2022/04/16 03:35:40;;;;;;;;;;;11.70;79.20;;;;;;5078682;28;19908;-78
2022/04/16 03:38:06;;;;;;;;;;;11.60;77.20;;;;;;5077474;28;19909;-78
2022/04/16 03:40:32;;;;;;;;;;;11.60;77.10;;;;;;5077911;28;19908;-78
2022/04/16 03:42:58;;;;;;;;;;;11.60;74.30;;;;;;5078717;28;19934;-78
2022/04/16 03:45:25;;;;;;;;;;;11.50;73.60;;;;;;5078384;28;19923;-78
2022/04/16 03:47:52;;;;;;;;;;;11.50;74.10;;;;;;5076852;28;19924;-78
2022/04/16 03:50:19;;;;;;;;;;;11.50;75.20;;;;;;5078436;28;19914;-78
2022/04/16 03:52:46;;;;;;;;;;;11.50;77.40;;;;;;5078478;28;19908;-78
2022/04/16 04:00:44;;;;;;;;;;;11.50;74.00;;;;;;5067698;28;20298;-78
2022/04/16 04:03:14;;;;;;;;;;;11.40;73.70;;;;;;5078090;28;19909;-77
2022/04/16 04:05:40;;;;;;;;;;;11.40;77.00;;;;;;5078282;28;19966;-78
2022/04/16 04:08:07;;;;;;;;;;;11.40;76.70;;;;;;5077738;28;20006;-77
2022/04/16 04:10:33;;;;;;;;;;;11.40;76.70;;;;;;5078112;28;19908;-78
2022/04/16 04:12:59;;;;;;;;;;;11.40;79.10;;;;;;5076285;28;19913;-78
2022/04/16 04:15:26;;;;;;;;;;;11.30;76.40;;;;;;5071163;28;19934;-79
2022/04/16 04:17:52;;;;;;;;;;;11.30;74.90;;;;;;5077394;28;19915;-79
2022/04/16 04:20:17;;;;;;;;;;;11.30;74.60;;;;;;5078101;28;19936;-78
2022/04/16 04:22:43;;;;;;;;;;;11.20;73.60;;;;;;5076651;28;19948;-78
2022/04/16 04:25:08;;;;;;;;;;;11.20;73.70;;;;;;5075565;28;20279;-78
2022/04/16 04:27:34;;;;;;;;;;;11.10;72.90;;;;;;5076873;28;19920;-79
2022/04/16 04:30:01;;;;;;;;;;;11.20;72.80;;;;;;5076802;28;19958;-78
2022/04/16 04:32:27;;;;;;;;;;;11.10;77.20;;;;;;5075259;28;19959;-78
2022/04/16 04:34:53;;;;;;;;;;;11.10;77.20;;;;;;5077535;28;19912;-79
2022/04/16 04:37:19;;;;;;;;;;;11.10;79.40;;;;;;5077289;28;19924;-78
2022/04/16 04:39:44;;;;;;;;;;;11.10;77.20;;;;;;5076848;28;19920;-78
2022/04/16 04:42:10;;;;;;;;;;;11.00;75.10;;;;;;5076566;28;20343;-78
2022/04/16 04:44:36;;;;;;;;;;;11.10;78.60;;;;;;5077082;28;19943;-79
2022/04/16 04:47:02;;;;;;;;;;;11.00;78.80;;;;;;5076829;28;19920;-79
2022/04/16 04:49:27;;;;;;;;;;;11.00;76.20;;;;;;5073062;28;19962;-79
2022/04/16 04:51:53;;;;;;;;;;;11.00;75.10;;;;;;5077285;28;19913;-78
2022/04/16 04:54:19;;;;;;;;;;;10.90;74.30;;;;;;5077108;28;19916;-79
2022/04/16 04:56:44;;;;;;;;;;;10.90;76.50;;;;;;5074619;28;19938;-79
2022/04/16 04:59:10;;;;;;;;;;;10.90;76.60;;;;;;5076906;28;19912;-80
2022/04/16 05:01:36;;;;;;;;;;;10.90;75.70;;;;;;5076950;28;20003;-78
2022/04/16 05:04:02;;;;;;;;;;;10.90;74.10;;;;;;5075765;28;19934;-79
2022/04/16 05:06:28;;;;;;;;;;;10.90;75.50;;;;;;5076873;28;19913;-78
2022/04/16 05:08:53;;;;;;;;;;;10.90;76.10;;;;;;5077033;28;19916;-78
2022/04/16 05:11:19;;;;;;;;;;;10.90;74.10;;;;;;5076375;28;19917;-78
2022/04/16 05:13:44;;;;;;;;;;;10.80;74.20;;;;;;5069427;28;20356;-78
2022/04/16 05:16:12;;;;;;;;;;;10.80;73.30;;;;;;5070178;28;19919;-79
2022/04/16 05:18:37;;;;;;;;;;;10.80;74.90;;;;;;5076772;28;19918;-78
2022/04/16 05:21:03;;;;;;;;;;;10.80;75.00;;;;;;5075562;28;20382;-78
2022/04/16 05:23:29;;;;;;;;;;;10.70;73.40;;;;;;5076885;28;19947;-78
2022/04/16 05:25:54;;;;;;;;;;;10.70;73.50;;;;;;5077417;28;19909;-78
2022/04/16 05:28:20;;;;;;;;;;;10.70;73.60;;;;;;5077459;28;19919;-79
2022/04/16 05:30:48;;;;;;;;;;;10.70;73.50;;;;;;5079867;28;19930;-79
2022/04/16 05:36:01;;;;;;;;;;;10.70;76.40;;;;;;5080995;28;19958;-77
2022/04/16 05:38:27;;;;;;;;;;;10.70;76.00;;;;;;5080659;28;19912;-77
2022/04/16 05:40:53;;;;;;;;;;;10.70;75.40;;;;;;5080065;28;20367;-77
2022/04/16 05:43:19;;;;;;;;;;;10.70;74.90;;;;;;5080770;28;19924;-78
2022/04/16 05:45:44;;;;;;;;;;;10.70;74.60;;;;;;5080315;28;19912;-78
2022/04/16 05:48:10;;;;;;;;;;;10.70;74.10;;;;;;5077200;28;19920;-77
2022/04/16 05:50:37;;;;;;;;;;;10.70;73.80;;;;;;5080444;28;19920;-78
2022/04/16 05:53:05;;;;;;;;;;;10.70;74.20;;;;;;5079930;28;19921;-78
2022/04/16 05:55:31;;;;;;;;;;;10.70;75.20;;;;;;5079145;28;19908;-77
2022/04/16 05:57:56;;;;;;;;;;;10.80;76.60;;;;;;5080942;28;20274;-77
2022/04/16 06:00:22;;;;;;;;;;;10.80;78.20;;;;;;5080371;28;19908;-77
2022/04/16 06:02:48;;;;;;;;;;;10.80;75.60;;;;;;5080539;28;19909;-77
2022/04/16 06:05:13;;;;;;;;;;;10.90;74.80;;;;;;5080553;28;20022;-77
2022/04/16 06:07:39;;;;;;;;;;;10.80;76.60;;;;;;5080745;28;20077;-77
2022/04/16 06:10:05;;;;;;;;;;;10.80;75.70;;;;;;5080204;28;20442;-77
2022/04/16 06:12:31;;;;;;;;;;;10.90;76.70;;;;;;5078424;28;20390;-78
2022/04/16 06:14:56;;;;;;;;;;;10.90;76.10;;;;;;5071362;28;19943;-77
2022/04/16 06:17:22;;;;;;;;;;;10.90;77.70;;;;;;5080292;28;19996;-78
2022/04/16 06:19:47;;;;;;;;;;;11.00;75.20;;;;;;5080096;28;19916;-78
2022/04/16 06:22:13;;;;;;;;;;;11.00;78.20;;;;;;5080324;28;19916;-78
2022/04/16 06:24:42;;;;;;;;;;;11.10;77.10;;;;;;5079153;28;19916;-78
2022/04/16 06:27:08;;;;;;;;;;;11.10;77.30;;;;;;5080099;28;19961;-77
2022/04/16 06:29:34;;;;;;;;;;;11.20;76.40;;;;;;5079948;28;19908;-78
2022/04/16 06:31:59;;;;;;;;;;;11.20;76.70;;;;;;5080114;28;19915;-78
2022/04/16 06:34:27;;;;;;;;;;;11.20;75.00;;;;;;5078868;28;19908;-78
2022/04/16 06:36:52;;;;;;;;;;;11.30;77.90;;;;;;5078735;28;19908;-78
2022/04/16 06:39:18;;;;;;;;;;;11.30;76.90;;;;;;5079034;28;19954;-78
2022/04/16 06:41:44;;;;;;;;;;;11.40;75.00;;;;;;5078284;28;19916;-78
2022/04/16 06:44:09;;;;;;;;;;;11.40;74.00;;;;;;5079775;28;19908;-78
2022/04/16 06:46:35;;;;;;;;;;;11.50;74.00;;;;;;5078199;28;19920;-78
2022/04/16 06:49:01;;;;;;;;;;;11.60;73.80;;;;;;5076069;28;19912;-78
2022/04/16 06:51:27;;;;;;;;;;;11.80;74.70;;;;;;5079812;28;20003;-78
2022/04/16 06:53:52;;;;;;;;;;;11.80;73.90;;;;;;5079276;28;19909;-78
2022/04/16 06:56:18;;;;;;;;;;;12.00;73.60;;;;;;5077827;28;19909;-78
2022/04/16 06:58:44;;;;;;;;;;;12.10;74.00;;;;;;5090469;28;19951;-78
2022/04/16 07:01:09;;;;;;;;;;;12.20;74.00;;;;;;5079159;28;19913;-77
2022/04/16 07:03:35;;;;;;;;;;;12.30;73.60;;;;;;5079642;28;19915;-78
2022/04/16 07:06:00;;;;;;;;;;;12.30;73.30;;;;;;5079181;28;19962;-78
2022/04/16 07:08:26;;;;;;;;;;;12.30;73.30;;;;;;5079270;28;19912;-78
2022/04/16 07:10:52;;;;;;;;;;;12.30;73.90;;;;;;5079106;28;19909;-78
2022/04/16 07:13:18;;;;;;;;;;;12.50;75.10;;;;;;5064814;28;19969;-78
2022/04/16 07:15:44;;;;;;;;;;;12.80;75.90;;;;;;5079256;28;19919;-78
2022/04/16 07:18:10;;;;;;;;;;;12.90;76.20;;;;;;5078861;28;19916;-78
2022/04/16 07:20:36;;;;;;;;;;;13.10;76.40;;;;;;5079207;28;19909;-78
2022/04/16 07:23:01;;;;;;;;;;;13.30;76.90;;;;;;5078773;28;20003;-78
2022/04/16 07:25:27;;;;;;;;;;;13.70;77.70;;;;;;5077483;28;19908;-77
2022/04/16 07:27:53;;;;;;;;;;;14.40;78.00;;;;;;5078698;28;19967;-78
2022/04/16 07:30:18;;;;;;;;;;;15.30;77.40;;;;;;5078984;28;20369;-77
2022/04/16 07:32:44;;;;;;;;;;;16.20;75.80;;;;;;5078681;28;20354;-77
2022/04/16 07:35:09;;;;;;;;;;;16.70;73.60;;;;;;5078947;28;19908;-78
2022/04/16 07:37:35;;;;;;;;;;;17.00;72.60;;;;;;5077941;28;19912;-77
2022/04/16 07:40:01;;;;;;;;;;;17.30;72.30;;;;;;5076704;28;19908;-75
2022/04/16 07:42:27;;;;;;;;;;;17.80;72.60;;;;;;5077209;28;19909;-73
2022/04/16 07:44:53;;;;;;;;;;;18.30;72.10;;;;;;5078690;28;20310;-76
2022/04/16 07:47:19;;;;;;;;;;;18.80;71.20;;;;;;5078218;28;20449;-81
2022/04/16 07:49:45;;;;;;;;;;;19.20;70.00;;;;;;5078368;28;19969;-81
2022/04/16 07:52:10;;;;;;;;;;;19.60;69.20;;;;;;5077716;28;19931;-80
2022/04/16 07:54:37;;;;;;;;;;;20.10;68.80;;;;;;5078182;28;20290;-72
2022/04/16 07:57:04;;;;;;;;;;;20.60;67.50;;;;;;5078190;28;19909;-74
2022/04/16 07:59:30;;;;;;;;;;;21.10;65.60;;;;;;5078424;28;19913;-78
2022/04/16 08:01:55;;;;;;;;;;;21.30;63.30;;;;;;5064116;28;19980;-78
2022/04/16 08:04:21;;;;;;;;;;;21.30;62.20;;;;;;5078198;28;19995;-81
2022/04/16 08:06:47;;;;;;;;;;;21.10;62.70;;;;;;5076835;28;19909;-81
2022/04/16 08:09:12;;;;;;;;;;;21.20;64.40;;;;;;5077925;28;20363;-79
2022/04/16 08:11:38;;;;;;;;;;;21.70;65.30;;;;;;5078327;28;20374;-78
2022/04/16 08:14:04;;;;;;;;;;;22.20;65.10;;;;;;5076374;28;19947;-78
2022/04/16 08:16:30;;;;;;;;;;;22.80;63.40;;;;;;5071472;28;19919;-80
2022/04/16 08:18:57;;;;;;;;;;;23.10;62.20;;;;;;5078523;28;20375;-83
2022/04/16 08:21:23;;;;;;;;;;;23.30;60.70;;;;;;5078428;28;20271;-79
2022/04/16 08:24:12;;;;;;;;;;;23.40;60.40;;;;;;5077920;28;19916;-80
2022/04/16 08:26:38;;;;;;;;;;;23.70;60.30;;;;;;5078289;28;20014;-77
2022/04/16 08:29:04;;;;;;;;;;;24.20;59.50;;;;;;5076251;28;19978;-81
2022/04/16 08:31:29;;;;;;;;;;;24.30;60.10;;;;;;5078114;28;20034;-84
2022/04/16 08:33:55;;;;;;;;;;;24.50;60.20;;;;;;5078327;28;19916;-85
2022/04/16 08:36:21;;;;;;;;;;;24.90;59.20;;;;;;5078553;28;19909;-78
2022/04/16 08:38:46;;;;;;;;;;;25.40;59.20;;;;;;5075052;28;19940;-79
2022/04/16 08:41:12;;;;;;;;;;;25.80;59.00;;;;;;5077153;28;19939;-80
2022/04/16 08:43:39;;;;;;;;;;;26.30;58.60;;;;;;5076042;28;19915;-80
2022/04/16 08:46:05;;;;;;;;;;;26.90;58.80;;;;;;5078173;28;19951;-82
2022/04/16 08:48:31;;;;;;;;;;;27.40;58.60;;;;;;5074734;28;19913;-81
2022/04/16 08:50:58;;;;;;;;;;;28.00;57.30;;;;;;5078412;28;19909;-79
2022/04/16 08:53:24;;;;;;;;;;;28.50;56.80;;;;;;5077979;28;19909;-80
2022/04/16 08:55:50;;;;;;;;;;;28.90;56.10;;;;;;5078135;28;19995;-80
2022/04/16 08:58:16;;;;;;;;;;;29.30;55.10;;;;;;5077029;28;19913;-77
2022/04/16 09:00:41;;;;;;;;;;;29.70;54.30;;;;;;5076808;28;20396;-81
2022/04/16 09:03:09;;;;;;;;;;;30.10;54.50;;;;;;5078426;28;19908;-80
2022/04/16 09:05:35;;;;;;;;;;;30.40;53.70;;;;;;5082379;28;19909;-84
2022/04/16 09:08:02;;;;;;;;;;;30.70;52.00;;;;;;5082068;28;19923;-84
2022/04/16 09:10:29;;;;;;;;;;;30.90;52.50;;;;;;5071878;28;19916;-84
2022/04/16 09:12:55;;;;;;;;;;;31.20;51.60;;;;;;5068773;28;19919;-83
2022/04/16 09:15:22;;;;;;;;;;;31.50;52.20;;;;;;5070224;28;19909;-83
2022/04/16 09:17:59;;;;;;;;;;;31.80;52.30;;;;;;5082083;28;19915;-81
2022/04/16 09:20:29;;;;;;;;;;;32.10;51.40;;;;;;5068920;28;19916;-79
2022/04/16 09:22:55;;;;;;;;;;;32.40;51.50;;;;;;5082159;28;19912;-77
2022/04/16 09:25:20;;;;;;;;;;;32.80;51.30;;;;;;5081628;28;19916;-76
2022/04/16 09:27:49;;;;;;;;;;;33.10;50.10;;;;;;5081519;28;19995;-74
2022/04/16 09:30:32;;;;;;;;;;;33.40;50.50;;;;;;5080509;28;19908;-74
2022/04/16 09:32:59;;;;;;;;;;;33.70;49.20;;;;;;5081456;28;19912;-74
2022/04/16 09:35:28;;;;;;;;;;;33.80;49.50;;;;;;5081163;28;20386;-75
2022/04/16 09:37:55;;;;;;;;;;;34.00;49.00;;;;;;5080401;28;19909;-74
2022/04/16 09:40:23;;;;;;;;;;;34.20;48.70;;;;;;5079654;28;19912;-78
2022/04/16 09:42:52;;;;;;;;;;;34.50;48.90;;;;;;5079086;28;20394;-75
2022/04/16 09:45:18;;;;;;;;;;;34.70;49.10;;;;;;5067537;28;20349;-73
2022/04/16 09:47:46;;;;;;;;;;;35.00;48.10;;;;;;5073928;28;19925;-73
2022/04/16 09:50:12;;;;;;;;;;;35.10;47.20;;;;;;5079321;28;19912;-75
2022/04/16 09:52:39;;;;;;;;;;;35.40;47.40;;;;;;5078893;28;19917;-71
2022/04/16 09:55:05;;;;;;;;;;;35.50;47.30;;;;;;5078443;28;19912;-73
2022/04/16 09:57:33;;;;;;;;;;;35.60;46.00;;;;;;5078724;28;19920;-73
2022/04/16 10:00:02;;;;;;;;;;;35.80;46.30;;;;;;5086178;28;19916;-74
2022/04/16 10:02:31;;;;;;;;;;;35.90;45.10;;;;;;5079482;28;20295;-73
2022/04/16 10:04:58;;;;;;;;;;;36.00;44.10;;;;;;5080448;28;19909;-74
2022/04/16 10:07:24;;;;;;;;;;;36.20;44.30;;;;;;5080427;28;19922;-74
2022/04/16 10:09:53;;;;;;;;;;;36.20;44.50;;;;;;5080228;28;19908;-73
2022/04/16 10:14:48;;;;;;;;;;;36.50;43.70;;;;;;5077040;28;19909;-73
2022/04/16 10:17:28;;;;;;;;;;;36.60;44.70;;;;;;5079897;28;20290;-73
2022/04/16 10:20:04;;;;;;;;;;;36.70;44.10;;;;;;5078023;28;20393;-73
2022/04/16 10:22:30;;;;;;;;;;;36.90;44.00;;;;;;5079214;28;19916;-73
2022/04/16 10:24:58;;;;;;;;;;;37.00;42.20;;;;;;5080125;28;20303;-74
2022/04/16 10:27:28;;;;;;;;;;;37.00;42.10;;;;;;5079045;28;19916;-74
2022/04/16 10:29:59;;;;;;;;;;;37.10;42.30;;;;;;5079952;28;19909;-73
2022/04/16 10:32:27;;;;;;;;;;;37.20;42.20;;;;;;5079847;28;20271;-74
2022/04/16 10:35:01;;;;;;;;;;;37.30;42.90;;;;;;5079853;28;19909;-73
2022/04/16 10:37:37;;;;;;;;;;;37.40;39.70;;;;;;5079541;28;19962;-73
2022/04/16 10:40:02;;;;;;;;;;;37.40;41.20;;;;;;5078524;28;19917;-73
2022/04/16 10:42:32;;;;;;;;;;;37.40;38.70;;;;;;5079903;28;19908;-72
2022/04/16 10:45:10;;;;;;;;;;;37.40;38.50;;;;;;5079614;28;19919;-73
2022/04/16 10:47:41;;;;;;;;;;;37.30;37.70;;;;;;5079064;28;20004;-73
2022/04/16 10:50:17;;;;;;;;;;;37.30;39.80;;;;;;5077821;28;19912;-73
2022/04/16 10:52:52;;;;;;;;;;;37.30;39.00;;;;;;5079728;28;19908;-73
2022/04/16 10:55:20;;;;;;;;;;;37.20;38.80;;;;;;5078147;28;19927;-72
2022/04/16 10:58:06;;;;;;;;;;;37.20;39.10;;;;;;5078878;28;19912;-72
2022/04/16 11:00:45;;;;;;;;;;;37.30;39.50;;;;;;5075783;28;19920;-71
2022/04/16 11:03:32;;;;;;;;;;;37.30;39.50;;;;;;5079283;28;19916;-72
2022/04/16 11:06:02;;;;;;;;;;;37.40;38.60;;;;;;5077045;28;20527;-72
2022/04/16 11:08:28;;;;;;;;;;;37.40;39.90;;;;;;5075847;28;19917;-72
2022/04/16 11:11:02;;;;;;;;;;;37.40;39.90;;;;;;5079130;28;19915;-72
2022/04/16 11:13:31;;;;;;;;;;;37.60;39.70;;;;;;5078855;28;19909;-72
2022/04/16 11:15:58;;;;;;;;;;;37.70;38.30;;;;;;5073428;28;20393;-73
2022/04/16 11:18:25;;;;;;;;;;;37.70;39.20;;;;;;5078110;28;19913;-73
2022/04/16 11:20:56;;;;;;;;;;;37.80;39.50;;;;;;5078418;28;19962;-74
2022/04/16 11:23:26;;;;;;;;;;;37.90;39.50;;;;;;5076822;28;19912;-77
